createdAt,value
2022-10-26T00:01:11.321Z,97.56
2022-10-26T00:03:40.374Z,97.33
2022-10-26T00:06:14.116Z,97.21
2022-10-26T00:08:41.749Z,97.53
2022-10-26T00:11:10.235Z,98.11
2022-10-26T00:13:38.205Z,97.84
2022-10-26T00:16:12.437Z,98.53
2022-10-26T00:18:39.673Z,98.01
2022-10-26T00:21:08.493Z,98.48
2022-10-26T00:23:35.917Z,97.18
2022-10-26T00:26:03.593Z,98.14
2022-10-26T00:28:30.983Z,98.15
2022-10-26T00:31:13.167Z,97.24
2022-10-26T00:33:40.516Z,97.91
2022-10-26T00:36:09.586Z,98.92
2022-10-26T00:38:37.240Z,100.00
2022-10-26T00:41:04.763Z,100.00
2022-10-26T00:43:32.048Z,100.00
2022-10-26T00:46:00.270Z,100.00
2022-10-26T00:48:33.394Z,100.00
2022-10-26T00:51:03.620Z,100.00
2022-10-26T00:53:32.094Z,100.00
2022-10-26T00:55:59.258Z,100.00
2022-10-26T00:58:27.049Z,100.00
2022-10-26T01:00:54.157Z,100.00
2022-10-26T01:03:25.623Z,100.00
2022-10-26T01:05:55.750Z,100.00
2022-10-26T01:08:24.368Z,100.00
2022-10-26T01:10:52.468Z,100.00
2022-10-26T01:13:20.294Z,100.00
2022-10-26T01:16:08.194Z,100.00
2022-10-26T01:18:50.150Z,100.00
2022-10-26T01:21:41.664Z,100.00
2022-10-26T01:24:11.926Z,100.00
2022-10-26T01:27:09.126Z,100.00
2022-10-26T01:29:58.174Z,100.00
2022-10-26T01:32:39.541Z,100.00
2022-10-26T01:35:23.806Z,100.00
2022-10-26T01:38:04.526Z,100.00
2022-10-26T01:40:38.375Z,100.00
2022-10-26T01:43:09.782Z,100.00
2022-10-26T01:45:41.306Z,100.00
2022-10-26T01:48:14.415Z,100.00
2022-10-26T01:50:43.379Z,100.00
2022-10-26T01:53:14.668Z,100.00
2022-10-26T01:55:50.222Z,100.00
2022-10-26T01:58:50.444Z,100.00
2022-10-26T02:01:30.568Z,100.00
2022-10-26T02:04:16.046Z,100.00
2022-10-26T02:06:53.639Z,100.00
2022-10-26T02:09:45.221Z,100.00
2022-10-26T02:12:28.802Z,100.00
2022-10-26T02:15:11.703Z,100.00
2022-10-26T02:17:49.686Z,100.00
2022-10-26T02:20:27.216Z,100.00
2022-10-26T02:22:56.813Z,100.00
2022-10-26T02:25:31.744Z,100.00
2022-10-26T02:28:07.766Z,100.00
2022-10-26T02:30:36.703Z,100.00
2022-10-26T02:33:06.023Z,100.00
2022-10-26T02:35:36.960Z,100.00
2022-10-26T02:38:09.259Z,100.00
2022-10-26T02:40:37.598Z,100.00
2022-10-26T02:43:12.939Z,100.00
2022-10-26T02:45:47.276Z,100.00
2022-10-26T02:48:15.941Z,100.00
2022-10-26T02:51:01.288Z,100.00
2022-10-26T02:53:41.774Z,100.00
2022-10-26T02:56:18.420Z,100.00
2022-10-26T02:58:51.186Z,100.00
2022-10-26T03:01:18.746Z,100.00
2022-10-26T03:03:46.866Z,100.00
2022-10-26T03:06:21.596Z,100.00
2022-10-26T03:08:48.931Z,100.00
2022-10-26T03:11:16.025Z,100.00
2022-10-26T03:13:43.336Z,100.00
2022-10-26T03:16:10.996Z,100.00
2022-10-26T03:18:37.865Z,100.00
2022-10-26T03:21:05.043Z,100.00
2022-10-26T03:23:32.126Z,100.00
2022-10-26T03:25:59.728Z,100.00
2022-10-26T03:28:26.924Z,100.00
2022-10-26T03:30:54.374Z,100.00
2022-10-26T03:33:24.407Z,100.00
2022-10-26T03:35:57.169Z,100.00
2022-10-26T03:38:24.633Z,100.00
2022-10-26T03:40:51.770Z,100.00
2022-10-26T03:43:19.182Z,100.00
2022-10-26T03:45:46.456Z,100.00
2022-10-26T03:48:13.621Z,100.00
2022-10-26T03:50:40.549Z,100.00
2022-10-26T03:53:08.243Z,100.00
2022-10-26T03:55:35.231Z,100.00
2022-10-26T03:58:02.837Z,100.00
2022-10-26T04:00:29.940Z,100.00
2022-10-26T04:02:58.909Z,100.00
2022-10-26T04:05:28.301Z,100.00
2022-10-26T04:07:57.137Z,100.00
2022-10-26T04:10:26.171Z,100.00
2022-10-26T04:12:54.615Z,100.00
2022-10-26T04:15:22.819Z,100.00
2022-10-26T04:17:56.964Z,100.00
2022-10-26T04:20:24.575Z,100.00
2022-10-26T04:22:59.446Z,100.00
2022-10-26T04:25:28.805Z,100.00
2022-10-26T04:27:59.113Z,100.00
2022-10-26T04:30:26.912Z,100.00
2022-10-26T04:32:53.917Z,100.00
2022-10-26T04:35:21.187Z,100.00
2022-10-26T04:37:48.193Z,100.00
2022-10-26T04:40:15.491Z,100.00
2022-10-26T04:42:46.624Z,100.00
2022-10-26T04:45:16.350Z,100.00
2022-10-26T04:47:43.812Z,100.00
2022-10-26T04:50:12.920Z,100.00
2022-10-26T04:52:40.522Z,100.00
2022-10-26T04:55:08.162Z,100.00
2022-10-26T04:57:35.607Z,100.00
2022-10-26T05:00:04.883Z,100.00
2022-10-26T05:02:32.079Z,100.00
2022-10-26T05:04:59.266Z,100.00
2022-10-26T05:07:26.555Z,100.00
2022-10-26T05:09:53.532Z,100.00
2022-10-26T05:12:20.836Z,100.00
2022-10-26T05:14:47.884Z,100.00
2022-10-26T05:17:14.889Z,100.00
2022-10-26T05:19:42.171Z,100.00
2022-10-26T05:22:09.150Z,100.00
2022-10-26T05:24:36.300Z,100.00
2022-10-26T05:27:03.564Z,100.00
2022-10-26T05:29:30.557Z,100.00
2022-10-26T05:31:57.603Z,100.00
2022-10-26T05:34:24.823Z,100.00
2022-10-26T05:36:54.084Z,100.00
2022-10-26T05:39:21.995Z,100.00
2022-10-26T05:41:49.072Z,100.00
2022-10-26T05:44:16.156Z,100.00
2022-10-26T05:46:43.549Z,100.00
2022-10-26T05:49:10.856Z,100.00
2022-10-26T05:51:39.954Z,100.00
2022-10-26T05:54:10.298Z,100.00
2022-10-26T05:59:25.495Z,100.00
2022-10-26T06:02:26.950Z,100.00
2022-10-26T06:04:57.129Z,100.00
2022-10-26T06:07:24.944Z,100.00
2022-10-26T06:09:52.120Z,100.00
2022-10-26T06:12:19.989Z,100.00
2022-10-26T06:14:47.784Z,100.00
2022-10-26T06:17:42.600Z,100.00
2022-10-26T06:20:10.008Z,100.00
2022-10-26T06:22:54.833Z,100.00
2022-10-26T06:25:41.966Z,100.00
2022-10-26T06:28:34.609Z,100.00
2022-10-26T06:31:01.956Z,100.00
2022-10-26T06:33:30.714Z,100.00
2022-10-26T06:36:08.941Z,100.00
2022-10-26T06:38:37.178Z,100.00
2022-10-26T06:41:05.082Z,100.00
2022-10-26T06:43:32.944Z,99.96
2022-10-26T06:46:15.176Z,98.69
2022-10-26T06:48:50.222Z,95.69
2022-10-26T06:51:18.145Z,97.02
2022-10-26T06:54:05.567Z,92.15
2022-10-26T06:56:32.896Z,90.02
2022-10-26T06:59:08.651Z,88.36
2022-10-26T07:01:35.676Z,86.70
2022-10-26T07:04:02.777Z,84.60
2022-10-26T07:06:32.414Z,81.96
2022-10-26T07:09:01.420Z,79.96
2022-10-26T07:11:28.745Z,75.98
2022-10-26T07:13:55.936Z,75.08
2022-10-26T07:16:23.661Z,73.65
2022-10-26T07:18:51.033Z,73.46
2022-10-26T07:21:18.052Z,72.01
2022-10-26T07:23:45.284Z,71.84
2022-10-26T07:26:12.350Z,69.80
2022-10-26T07:28:39.352Z,69.48
2022-10-26T07:31:06.797Z,68.52
2022-10-26T07:33:35.881Z,67.27
2022-10-26T07:36:08.904Z,67.38
2022-10-26T07:38:35.875Z,65.89
2022-10-26T07:41:03.842Z,65.33
2022-10-26T07:43:30.713Z,65.86
2022-10-26T07:45:57.992Z,65.25
2022-10-26T07:48:24.973Z,63.73
2022-10-26T07:50:51.941Z,63.42
2022-10-26T07:53:20.473Z,62.66
2022-10-26T07:55:58.968Z,62.32
2022-10-26T07:58:27.556Z,61.68
2022-10-26T08:00:55.214Z,61.89
2022-10-26T08:03:22.487Z,60.91
2022-10-26T08:05:51.864Z,59.88
2022-10-26T08:08:18.762Z,60.80
2022-10-26T08:10:46.783Z,60.78
2022-10-26T08:13:14.700Z,60.18
2022-10-26T08:15:42.144Z,59.24
2022-10-26T08:18:09.561Z,59.10
2022-10-26T08:20:36.768Z,59.06
2022-10-26T08:23:06.525Z,58.26
2022-10-26T08:25:33.846Z,57.93
2022-10-26T08:28:04.653Z,57.46
2022-10-26T08:30:33.175Z,57.36
2022-10-26T08:33:05.340Z,57.20
2022-10-26T08:35:33.508Z,57.66
2022-10-26T08:38:00.822Z,57.59
2022-10-26T08:40:32.218Z,56.85
2022-10-26T08:43:05.930Z,55.73
2022-10-26T08:45:50.683Z,55.03
2022-10-26T08:48:22.316Z,54.53
2022-10-26T08:50:56.520Z,54.15
2022-10-26T08:53:51.258Z,54.15
2022-10-26T08:56:25.193Z,53.95
2022-10-26T08:59:02.039Z,53.63
2022-10-26T09:01:32.543Z,53.26
2022-10-26T09:06:42.992Z,52.86
2022-10-26T09:09:46.707Z,52.12
2022-10-26T09:12:45.954Z,51.93
2022-10-26T09:15:39.029Z,50.68
2022-10-26T09:18:22.336Z,49.62
2022-10-26T09:21:15.705Z,49.57
2022-10-26T09:24:07.462Z,50.13
2022-10-26T09:26:55.725Z,48.77
2022-10-26T09:29:41.433Z,48.45
2022-10-26T09:32:21.094Z,48.57
2022-10-26T09:34:55.393Z,47.76
2022-10-26T09:37:29.246Z,47.62
2022-10-26T09:40:06.044Z,46.43
2022-10-26T09:42:51.545Z,46.47
2022-10-26T09:45:21.566Z,46.87
2022-10-26T09:47:53.030Z,46.35
2022-10-26T09:50:42.598Z,45.96
2022-10-26T09:53:10.207Z,45.73
2022-10-26T09:55:41.522Z,45.08
2022-10-26T09:58:33.339Z,44.61
2022-10-26T10:01:00.426Z,43.78
2022-10-26T10:03:30.496Z,43.50
2022-10-26T10:06:19.469Z,43.80
2022-10-26T10:09:12.094Z,43.35
2022-10-26T10:11:59.826Z,42.67
2022-10-26T10:14:39.910Z,42.35
2022-10-26T10:19:48.087Z,42.51
2022-10-26T10:22:15.041Z,42.29
2022-10-26T10:25:02.736Z,41.45
2022-10-26T10:27:33.593Z,41.39
2022-10-26T10:30:20.879Z,41.14
2022-10-26T10:33:03.854Z,42.46
2022-10-26T10:35:31.016Z,41.58
2022-10-26T10:37:58.260Z,41.76
2022-10-26T10:40:29.598Z,41.13
2022-10-26T10:43:11.618Z,42.07
2022-10-26T10:45:39.242Z,41.82
2022-10-26T10:48:14.393Z,41.76
2022-10-26T10:50:57.383Z,40.79
2022-10-26T10:53:31.173Z,40.05
2022-10-26T10:56:22.936Z,39.90
2022-10-26T10:58:57.393Z,40.44
2022-10-26T11:01:38.870Z,40.38
2022-10-26T11:04:25.706Z,39.40
2022-10-26T11:06:57.890Z,39.44
2022-10-26T11:09:30.790Z,37.96
2022-10-26T11:12:04.095Z,38.61
2022-10-26T11:14:57.094Z,38.37
2022-10-26T11:17:33.975Z,37.58
2022-10-26T11:20:14.933Z,37.62
2022-10-26T11:23:01.031Z,38.13
2022-10-26T11:25:56.803Z,37.91
2022-10-26T11:29:00.289Z,37.45
2022-10-26T11:31:34.096Z,37.79
2022-10-26T11:34:11.032Z,37.34
2022-10-26T11:36:42.593Z,37.60
2022-10-26T11:39:35.043Z,37.45
2022-10-26T11:42:16.369Z,37.69
2022-10-26T11:45:00.016Z,36.88
2022-10-26T11:47:57.951Z,37.47
2022-10-26T11:50:35.053Z,36.16
2022-10-26T11:53:17.227Z,36.66
2022-10-26T11:55:50.644Z,36.61
2022-10-26T11:58:18.202Z,36.91
2022-10-26T12:00:51.019Z,37.59
2022-10-26T12:03:23.412Z,37.00
2022-10-26T12:05:52.447Z,36.73
2022-10-26T12:08:31.361Z,37.13
2022-10-26T12:14:00.638Z,37.67
2022-10-26T12:16:36.646Z,37.30
2022-10-26T12:19:12.272Z,37.37
2022-10-26T12:21:39.503Z,37.69
2022-10-26T12:24:29.727Z,37.11
2022-10-26T12:27:05.812Z,37.53
2022-10-26T12:29:45.995Z,38.09
2022-10-26T12:32:31.170Z,38.27
2022-10-26T12:35:00.321Z,37.47
2022-10-26T12:37:37.436Z,37.33
2022-10-26T12:40:35.186Z,36.87
2022-10-26T12:43:14.603Z,37.33
2022-10-26T12:45:42.850Z,37.95
2022-10-26T12:48:46.319Z,37.89
2022-10-26T12:51:39.687Z,36.84
2022-10-26T12:54:30.883Z,37.53
2022-10-26T12:57:11.211Z,37.33
2022-10-26T12:59:48.976Z,38.22
2022-10-26T13:02:18.818Z,38.33
2022-10-26T13:05:19.654Z,38.76
2022-10-26T13:07:47.508Z,38.87
2022-10-26T13:10:14.464Z,38.02
2022-10-26T13:12:53.619Z,38.95
2022-10-26T13:15:31.464Z,39.32
2022-10-26T13:18:08.839Z,37.96
2022-10-26T13:20:38.309Z,37.53
2022-10-26T13:23:21.160Z,38.23
2022-10-26T13:26:05.193Z,37.08
2022-10-26T13:28:44.639Z,36.95
2022-10-26T13:31:20.690Z,37.47
2022-10-26T13:33:51.221Z,36.45
2022-10-26T13:36:37.469Z,36.64
2022-10-26T13:39:20.970Z,35.22
2022-10-26T13:41:51.546Z,35.34
2022-10-26T13:44:50.100Z,36.71
2022-10-26T13:47:27.640Z,37.34
2022-10-26T13:49:56.726Z,38.15
2022-10-26T13:52:38.491Z,38.26
2022-10-26T13:55:20.696Z,39.33
2022-10-26T13:58:17.236Z,39.16
2022-10-26T14:01:14.122Z,39.28
2022-10-26T14:03:43.234Z,39.57
2022-10-26T14:06:34.738Z,39.33
2022-10-26T14:09:11.646Z,38.74
2022-10-26T14:11:48.406Z,39.19
2022-10-26T14:14:32.405Z,37.89
2022-10-26T14:17:00.070Z,38.15
2022-10-26T14:19:32.944Z,38.30
2022-10-26T14:22:01.224Z,38.68
2022-10-26T14:24:46.683Z,38.59
2022-10-26T14:27:19.631Z,38.95
2022-10-26T14:30:03.673Z,38.70
2022-10-26T14:32:37.259Z,38.42
2022-10-26T14:35:04.834Z,38.61
2022-10-26T14:37:38.662Z,38.67
2022-10-26T14:40:09.903Z,39.09
2022-10-26T14:42:41.946Z,39.46
2022-10-26T14:45:43.392Z,41.03
2022-10-26T14:48:23.777Z,42.09
2022-10-26T14:51:06.429Z,44.05
2022-10-26T14:53:39.243Z,45.32
2022-10-26T14:56:21.430Z,45.88
2022-10-26T14:58:49.320Z,46.78
2022-10-26T15:01:17.567Z,48.09
2022-10-26T15:03:45.743Z,48.57
2022-10-26T15:06:37.657Z,49.02
2022-10-26T15:09:07.021Z,49.79
2022-10-26T15:11:35.658Z,51.26
2022-10-26T15:14:03.286Z,52.87
2022-10-26T15:16:35.175Z,53.64
2022-10-26T15:19:12.215Z,54.31
2022-10-26T15:21:46.101Z,54.79
2022-10-26T15:24:34.655Z,55.16
2022-10-26T15:27:12.534Z,55.93
2022-10-26T15:29:44.193Z,56.28
2022-10-26T15:32:36.730Z,56.93
2022-10-26T15:35:20.148Z,57.25
2022-10-26T15:37:57.063Z,57.95
2022-10-26T15:41:38.787Z,59.02
2022-10-26T15:44:46.346Z,60.57
2022-10-26T15:47:40.167Z,60.80
2022-10-26T15:53:53.595Z,62.57
2022-10-26T15:56:29.206Z,63.26
2022-10-26T15:59:04.115Z,63.64
2022-10-26T16:01:31.773Z,63.75
2022-10-26T16:04:04.208Z,64.73
2022-10-26T16:06:34.534Z,65.09
2022-10-26T16:09:04.324Z,65.85
2022-10-26T16:11:31.473Z,66.09
2022-10-26T16:14:02.781Z,66.04
2022-10-26T16:16:31.469Z,66.28
2022-10-26T16:19:18.380Z,66.49
2022-10-26T16:21:45.809Z,67.54
2022-10-26T16:24:12.994Z,67.37
2022-10-26T16:26:39.917Z,68.21
2022-10-26T16:29:06.947Z,69.37
2022-10-26T16:31:33.953Z,69.38
2022-10-26T16:34:03.973Z,69.31
2022-10-26T16:36:35.002Z,70.07
2022-10-26T16:41:32.176Z,70.32
2022-10-26T16:43:59.376Z,70.84
2022-10-26T16:46:29.678Z,71.90
2022-10-26T16:48:56.741Z,70.72
2022-10-26T16:51:29.363Z,71.10
2022-10-26T16:54:24.365Z,72.17
2022-10-26T16:56:51.544Z,72.30
2022-10-26T16:59:18.691Z,72.33
2022-10-26T17:01:45.677Z,73.63
2022-10-26T17:04:12.876Z,73.41
2022-10-26T17:06:39.919Z,74.38
2022-10-26T17:09:08.872Z,75.09
2022-10-26T17:11:36.158Z,74.28
2022-10-26T17:14:14.844Z,74.57
2022-10-26T17:16:42.852Z,74.59
2022-10-26T17:19:14.122Z,74.71
2022-10-26T17:21:41.379Z,75.80
2022-10-26T17:24:08.796Z,75.88
2022-10-26T17:26:36.107Z,75.22
2022-10-26T17:29:03.329Z,75.25
2022-10-26T17:31:30.464Z,76.05
2022-10-26T17:33:58.740Z,75.57
2022-10-26T17:36:26.773Z,74.80
2022-10-26T17:38:55.580Z,75.89
2022-10-26T17:41:26.960Z,76.80
2022-10-26T17:43:56.864Z,77.07
2022-10-26T17:46:26.289Z,77.79
2022-10-26T17:48:58.771Z,77.75
2022-10-26T17:51:27.448Z,77.94
2022-10-26T17:53:55.206Z,78.59
2022-10-26T17:56:24.498Z,78.14
2022-10-26T17:58:53.690Z,78.85
2022-10-26T18:01:21.372Z,79.13
2022-10-26T18:03:48.788Z,78.55
2022-10-26T18:06:17.423Z,78.35
2022-10-26T18:08:47.441Z,78.12
2022-10-26T18:11:25.309Z,78.41
2022-10-26T18:13:54.919Z,77.68
2022-10-26T18:16:23.256Z,79.64
2022-10-26T18:19:01.597Z,78.66
2022-10-26T18:21:32.344Z,79.58
2022-10-26T18:24:00.268Z,80.22
2022-10-26T18:26:29.700Z,80.18
2022-10-26T18:29:01.576Z,79.93
2022-10-26T18:31:30.569Z,81.06
2022-10-26T18:34:03.016Z,81.11
2022-10-26T18:36:31.591Z,81.26
2022-10-26T18:39:02.495Z,81.12
2022-10-26T18:41:30.409Z,81.05
2022-10-26T18:44:00.565Z,80.96
2022-10-26T18:46:30.785Z,81.43
2022-10-26T18:49:01.089Z,81.17
2022-10-26T18:51:37.345Z,82.02
2022-10-26T18:54:05.711Z,81.64
2022-10-26T18:56:33.354Z,81.22
2022-10-26T18:59:01.332Z,81.04
2022-10-26T19:01:32.487Z,81.01
2022-10-26T19:04:06.062Z,81.64
2022-10-26T19:06:35.977Z,82.40
2022-10-26T19:09:04.961Z,81.67
2022-10-26T19:11:32.870Z,82.12
2022-10-26T19:14:00.937Z,82.91
2022-10-26T19:16:46.328Z,82.58
2022-10-26T19:19:16.914Z,82.83
2022-10-26T19:21:45.967Z,82.91
2022-10-26T19:24:19.456Z,82.65
2022-10-26T19:26:48.422Z,82.68
2022-10-26T19:29:17.175Z,81.62
2022-10-26T19:31:46.451Z,82.63
2022-10-26T19:34:16.028Z,82.87
2022-10-26T19:36:45.320Z,82.38
2022-10-26T19:39:14.408Z,82.45
2022-10-26T19:41:41.669Z,83.19
2022-10-26T19:44:10.879Z,83.40
2022-10-26T19:46:38.325Z,83.30
2022-10-26T19:49:05.710Z,83.49
2022-10-26T19:51:33.026Z,82.68
2022-10-26T19:54:03.925Z,84.65
2022-10-26T19:56:35.895Z,84.97
2022-10-26T19:59:04.499Z,85.10
2022-10-26T20:01:32.278Z,84.76
2022-10-26T20:04:02.866Z,86.79
2022-10-26T20:06:38.592Z,86.58
2022-10-26T20:09:05.973Z,85.68
2022-10-26T20:11:42.221Z,85.28
2022-10-26T20:14:10.651Z,84.75
2022-10-26T20:16:38.072Z,84.83
2022-10-26T20:19:08.099Z,84.70
2022-10-26T20:21:35.932Z,85.18
2022-10-26T20:24:07.850Z,85.19
2022-10-26T20:26:37.643Z,85.25
2022-10-26T20:29:05.075Z,85.14
2022-10-26T20:31:32.637Z,84.75
2022-10-26T20:34:00.261Z,84.69
2022-10-26T20:36:27.310Z,85.52
2022-10-26T20:38:54.665Z,85.52
2022-10-26T20:41:25.179Z,85.32
2022-10-26T20:43:55.684Z,84.98
2022-10-26T20:46:26.942Z,85.67
2022-10-26T20:48:54.709Z,85.89
2022-10-26T20:51:38.534Z,85.85
2022-10-26T20:54:37.104Z,86.17
2022-10-26T20:57:07.752Z,85.35
2022-10-26T20:59:48.087Z,85.59
2022-10-26T21:02:17.654Z,85.84
2022-10-26T21:04:44.748Z,86.34
2022-10-26T21:07:11.681Z,85.79
2022-10-26T21:09:38.766Z,86.18
2022-10-26T21:12:06.217Z,86.43
2022-10-26T21:14:39.686Z,86.15
2022-10-26T21:17:07.900Z,86.27
2022-10-26T21:19:34.981Z,86.89
2022-10-26T21:22:02.217Z,86.82
2022-10-26T21:24:29.408Z,87.00
2022-10-26T21:26:56.419Z,86.95
2022-10-26T21:29:24.947Z,86.30
2022-10-26T21:32:15.894Z,86.64
2022-10-26T21:34:43.836Z,86.56
2022-10-26T21:37:11.279Z,86.58
2022-10-26T21:39:39.251Z,86.22
2022-10-26T21:42:07.041Z,86.49
2022-10-26T21:44:40.974Z,86.35
2022-10-26T21:47:08.936Z,87.14
2022-10-26T21:49:36.824Z,86.11
2022-10-26T21:52:03.768Z,86.04
2022-10-26T21:54:30.641Z,86.13
2022-10-26T21:56:57.948Z,86.30
2022-10-26T21:59:28.083Z,86.20
2022-10-26T22:01:56.100Z,86.50
2022-10-26T22:04:23.397Z,86.56
2022-10-26T22:06:50.481Z,86.73
2022-10-26T22:09:17.761Z,86.66
2022-10-26T22:11:47.890Z,86.52
2022-10-26T22:14:16.177Z,86.17
2022-10-26T22:16:44.969Z,86.10
2022-10-26T22:19:15.866Z,86.33
2022-10-26T22:21:43.396Z,86.08
2022-10-26T22:24:11.444Z,85.94
2022-10-26T22:26:38.315Z,86.31
2022-10-26T22:29:05.751Z,86.88
2022-10-26T22:31:40.277Z,87.11
2022-10-26T22:34:16.396Z,86.94
2022-10-26T22:36:47.279Z,87.04
2022-10-26T22:39:14.830Z,87.44
2022-10-26T22:41:42.165Z,86.97
2022-10-26T22:44:13.513Z,86.93
2022-10-26T22:47:44.926Z,87.25
2022-10-26T22:53:45.107Z,88.01
2022-10-26T22:56:15.064Z,88.44
2022-10-26T22:58:43.562Z,87.62
2022-10-26T23:01:17.182Z,87.50
2022-10-26T23:03:44.925Z,87.49
2022-10-26T23:06:14.227Z,87.19
2022-10-26T23:08:41.776Z,87.39
2022-10-26T23:11:12.679Z,88.05
2022-10-26T23:13:39.921Z,87.55
2022-10-26T23:16:15.416Z,87.88
2022-10-26T23:18:42.382Z,88.06
2022-10-26T23:21:11.195Z,87.63
2022-10-26T23:23:38.314Z,87.88
2022-10-26T23:26:08.350Z,87.74
2022-10-26T23:28:36.636Z,87.44
2022-10-26T23:31:03.979Z,87.80
2022-10-26T23:33:31.769Z,88.30
2022-10-26T23:35:59.389Z,88.99
2022-10-26T23:38:26.541Z,88.53
2022-10-26T23:40:58.041Z,88.52
2022-10-26T23:43:26.457Z,88.95
2022-10-26T23:45:54.438Z,88.81
2022-10-26T23:48:21.501Z,88.18
2022-10-26T23:50:50.719Z,89.16
2022-10-26T23:53:20.439Z,88.93
2022-10-26T23:55:48.668Z,89.21
2022-10-26T23:58:16.777Z,88.89
